createdAt,value
2019-01-30T00:02:08.464Z,0.97
2019-01-30T00:04:38.844Z,0.96
2019-01-30T00:07:09.336Z,0.96
2019-01-30T00:09:39.734Z,0.93
2019-01-30T00:12:10.179Z,0.93
2019-01-30T00:14:40.601Z,0.92
2019-01-30T00:17:10.876Z,0.91
2019-01-30T00:19:41.261Z,0.89
2019-01-30T00:22:11.601Z,0.88
2019-01-30T00:24:41.837Z,0.85
2019-01-30T00:27:12.167Z,0.83
2019-01-30T00:29:42.524Z,0.83
2019-01-30T00:32:15.065Z,0.80
2019-01-30T00:34:45.399Z,0.79
2019-01-30T00:37:15.615Z,0.77
2019-01-30T00:39:45.835Z,0.78
2019-01-30T00:42:16.130Z,0.78
2019-01-30T00:44:46.388Z,0.79
2019-01-30T00:47:16.652Z,0.78
2019-01-30T00:49:47.021Z,0.79
2019-01-30T00:52:17.348Z,0.80
2019-01-30T00:54:47.701Z,0.79
2019-01-30T00:57:17.922Z,0.80
2019-01-30T00:59:48.289Z,0.80
2019-01-30T01:02:18.615Z,0.80
2019-01-30T01:04:49.013Z,0.76
2019-01-30T01:07:19.254Z,0.76
2019-01-30T01:09:49.569Z,0.75
2019-01-30T01:12:19.950Z,0.74
2019-01-30T01:14:50.470Z,0.74
2019-01-30T01:17:20.770Z,0.73
2019-01-30T01:19:50.990Z,0.73
2019-01-30T01:22:21.772Z,0.74
2019-01-30T01:24:52.115Z,0.71
2019-01-30T01:27:22.399Z,0.72
2019-01-30T01:29:52.711Z,0.72
2019-01-30T01:32:22.927Z,0.71
2019-01-30T01:34:53.217Z,0.72
2019-01-30T01:37:23.509Z,0.73
2019-01-30T01:40:02.339Z,0.72
2019-01-30T01:42:32.707Z,0.72
2019-01-30T01:45:03.062Z,0.71
2019-01-30T01:47:33.483Z,0.72
2019-01-30T01:50:04.106Z,0.71
2019-01-30T01:52:34.374Z,0.69
2019-01-30T01:55:05.326Z,0.69
2019-01-30T01:57:35.642Z,0.69
2019-01-30T02:00:08.799Z,0.69
2019-01-30T02:02:39.091Z,0.67
2019-01-30T02:05:12.729Z,0.64
2019-01-30T02:07:43.024Z,0.64
2019-01-30T02:10:16.821Z,0.64
2019-01-30T02:12:47.296Z,0.61
2019-01-30T02:15:20.397Z,0.62
2019-01-30T02:17:51.191Z,0.61
2019-01-30T02:20:39.537Z,0.61
2019-01-30T02:23:09.822Z,0.59
2019-01-30T02:25:40.583Z,0.59
2019-01-30T02:28:10.863Z,0.59
2019-01-30T02:30:47.570Z,0.59
2019-01-30T02:33:13.166Z,0.58
2019-01-30T02:35:43.550Z,0.56
2019-01-30T02:38:13.842Z,0.54
2019-01-30T02:40:52.167Z,0.54
2019-01-30T02:43:22.428Z,0.53
2019-01-30T02:45:52.716Z,0.49
2019-01-30T02:48:23.060Z,0.51
2019-01-30T02:50:53.468Z,0.53
2019-01-30T02:53:23.730Z,0.54
2019-01-30T02:55:54.042Z,0.55
2019-01-30T02:58:24.323Z,0.54
2019-01-30T03:00:59.408Z,0.55
2019-01-30T03:03:26.831Z,0.57
2019-01-30T03:05:57.260Z,0.57
2019-01-30T03:08:27.638Z,0.55
2019-01-30T03:10:57.896Z,0.58
2019-01-30T03:13:28.255Z,0.60
2019-01-30T03:15:58.573Z,0.60
2019-01-30T03:18:30.208Z,0.60
2019-01-30T03:21:00.551Z,0.61
2019-01-30T03:23:31.080Z,0.64
2019-01-30T03:26:03.174Z,0.64
2019-01-30T03:28:33.413Z,0.62
2019-01-30T03:31:16.842Z,0.64
2019-01-30T03:33:38.781Z,0.64
2019-01-30T03:36:09.419Z,0.62
2019-01-30T03:38:39.640Z,0.63
2019-01-30T03:41:10.053Z,0.62
2019-01-30T03:43:40.529Z,0.62
2019-01-30T03:46:10.984Z,0.60
2019-01-30T03:48:41.251Z,0.60
2019-01-30T03:51:11.601Z,0.61
2019-01-30T03:53:41.951Z,0.61
2019-01-30T03:56:12.243Z,0.62
2019-01-30T03:58:42.570Z,0.61
2019-01-30T04:01:12.850Z,0.62
2019-01-30T04:03:43.262Z,0.62
2019-01-30T04:06:13.576Z,0.61
2019-01-30T04:08:43.947Z,0.65
2019-01-30T04:11:14.273Z,0.67
2019-01-30T04:13:44.540Z,0.69
2019-01-30T04:16:14.881Z,0.70
2019-01-30T04:18:45.174Z,0.70
2019-01-30T04:21:15.641Z,0.71
2019-01-30T04:23:49.071Z,0.73
2019-01-30T04:26:19.299Z,0.75
2019-01-30T04:28:49.712Z,0.75
2019-01-30T04:31:20.086Z,0.75
2019-01-30T04:33:50.343Z,0.74
2019-01-30T04:36:20.635Z,0.75
2019-01-30T04:38:51.088Z,0.73
2019-01-30T04:41:21.348Z,0.72
2019-01-30T04:43:51.683Z,0.71
2019-01-30T04:46:21.923Z,0.69
2019-01-30T04:48:52.228Z,0.65
2019-01-30T04:51:22.603Z,0.66
2019-01-30T04:53:52.896Z,0.64
2019-01-30T04:56:23.213Z,0.64
2019-01-30T04:58:54.776Z,0.63
2019-01-30T05:01:25.025Z,0.60
2019-01-30T05:03:55.340Z,0.58
2019-01-30T05:06:25.739Z,0.60
2019-01-30T05:08:56.258Z,0.59
2019-01-30T05:11:26.652Z,0.59
2019-01-30T05:13:56.879Z,0.58
2019-01-30T05:16:27.242Z,0.57
2019-01-30T05:18:57.521Z,0.56
2019-01-30T05:21:27.885Z,0.56
2019-01-30T05:23:58.213Z,0.56
2019-01-30T05:26:28.554Z,0.55
2019-01-30T05:28:58.858Z,0.57
2019-01-30T05:31:29.239Z,0.58
2019-01-30T05:33:59.503Z,0.60
2019-01-30T05:36:29.853Z,0.61
2019-01-30T05:39:00.130Z,0.64
2019-01-30T05:41:30.519Z,0.64
2019-01-30T05:44:00.764Z,0.66
2019-01-30T05:46:31.123Z,0.65
2019-01-30T05:49:01.438Z,0.68
2019-01-30T05:51:31.793Z,0.68
2019-01-30T05:54:02.097Z,0.70
2019-01-30T05:56:32.407Z,0.73
2019-01-30T05:59:02.846Z,0.75
2019-01-30T06:01:33.503Z,0.76
2019-01-30T06:04:03.986Z,0.78
2019-01-30T06:06:34.536Z,0.79
2019-01-30T06:09:06.565Z,0.81
2019-01-30T06:11:37.035Z,0.80
2019-01-30T06:14:07.539Z,0.80
2019-01-30T06:16:38.042Z,0.83
2019-01-30T06:19:08.864Z,0.83
2019-01-30T06:21:41.325Z,0.84
2019-01-30T06:24:12.075Z,0.85
2019-01-30T06:26:42.837Z,0.84
2019-01-30T06:29:13.411Z,0.85
2019-01-30T06:31:44.187Z,0.86
2019-01-30T06:34:14.737Z,0.86
2019-01-30T06:36:45.207Z,0.84
2019-01-30T06:39:15.790Z,0.85
2019-01-30T06:41:46.385Z,0.85
2019-01-30T06:44:16.899Z,0.84
2019-01-30T06:46:47.477Z,0.84
2019-01-30T06:49:18.058Z,0.85
2019-01-30T06:51:48.534Z,0.81
2019-01-30T06:54:19.050Z,0.84
2019-01-30T06:56:49.562Z,0.82
2019-01-30T06:59:20.002Z,0.85
2019-01-30T07:01:50.639Z,0.85
2019-01-30T07:04:21.203Z,0.86
2019-01-30T07:06:55.302Z,0.86
2019-01-30T07:09:25.807Z,0.86
2019-01-30T07:11:56.191Z,0.87
2019-01-30T07:14:26.680Z,0.86
2019-01-30T07:16:57.183Z,0.87
2019-01-30T07:19:27.781Z,0.85
2019-01-30T07:21:58.310Z,0.86
2019-01-30T07:24:28.651Z,0.87
2019-01-30T07:26:58.970Z,0.86
2019-01-30T07:29:29.342Z,0.87
2019-01-30T07:31:59.667Z,0.88
2019-01-30T07:34:29.868Z,0.87
2019-01-30T07:37:00.198Z,0.89
2019-01-30T07:39:30.540Z,0.91
2019-01-30T07:42:00.885Z,0.92
2019-01-30T07:44:31.247Z,0.94
2019-01-30T07:47:01.553Z,0.98
2019-01-30T07:49:31.710Z,0.99
2019-01-30T07:52:02.003Z,1.00
2019-01-30T07:54:32.238Z,1.04
2019-01-30T07:57:05.281Z,1.08
2019-01-30T07:59:35.623Z,1.11
2019-01-30T08:02:06.880Z,1.13
2019-01-30T08:04:39.746Z,1.16
2019-01-30T08:07:10.038Z,1.18
2019-01-30T08:09:41.827Z,1.19
2019-01-30T08:12:12.700Z,1.21
2019-01-30T08:14:43.058Z,1.23
2019-01-30T08:17:13.433Z,1.27
2019-01-30T08:19:43.704Z,1.30
2019-01-30T08:22:14.078Z,1.32
2019-01-30T08:24:44.858Z,1.36
2019-01-30T08:27:15.590Z,1.40
2019-01-30T08:29:46.383Z,1.44
2019-01-30T08:32:16.916Z,1.50
2019-01-30T08:34:47.360Z,1.53
2019-01-30T08:37:17.630Z,1.55
2019-01-30T08:39:49.603Z,1.60
2019-01-30T08:42:20.049Z,1.62
2019-01-30T08:44:50.367Z,1.63
2019-01-30T08:47:20.690Z,1.65
2019-01-30T08:49:51.093Z,1.66
2019-01-30T08:52:21.489Z,1.65
2019-01-30T08:54:51.812Z,1.66
2019-01-30T08:57:22.216Z,1.65
2019-01-30T08:59:52.665Z,1.66
2019-01-30T09:02:23.114Z,1.69
2019-01-30T09:04:55.567Z,1.70
2019-01-30T09:07:25.805Z,1.70
2019-01-30T09:09:56.305Z,1.72
2019-01-30T09:12:26.816Z,1.75
2019-01-30T09:14:57.613Z,1.75
2019-01-30T09:17:29.041Z,1.77
2019-01-30T09:20:01.982Z,1.76
2019-01-30T09:22:32.446Z,1.77
2019-01-30T09:25:05.060Z,1.80
2019-01-30T09:27:35.507Z,1.81
2019-01-30T09:30:10.044Z,1.83
2019-01-30T09:32:40.419Z,1.86
2019-01-30T09:35:18.701Z,1.90
2019-01-30T09:37:50.908Z,1.95
2019-01-30T09:40:21.398Z,2.01
2019-01-30T09:42:55.187Z,2.07
2019-01-30T09:45:26.444Z,2.17
2019-01-30T09:47:56.951Z,2.22
2019-01-30T09:50:27.317Z,2.29
2019-01-30T09:53:01.082Z,2.38
2019-01-30T09:55:31.526Z,2.45
2019-01-30T09:58:02.357Z,2.51
2019-01-30T10:00:37.827Z,2.58
2019-01-30T10:03:11.720Z,2.66
2019-01-30T10:05:42.154Z,2.75
2019-01-30T10:08:12.490Z,2.79
2019-01-30T10:10:42.883Z,2.85
2019-01-30T10:13:13.405Z,2.93
2019-01-30T10:15:45.294Z,2.97
2019-01-30T10:18:16.716Z,3.03
2019-01-30T10:20:48.563Z,3.12
2019-01-30T10:23:20.389Z,3.20
2019-01-30T10:25:50.773Z,3.28
2019-01-30T10:28:21.828Z,3.35
2019-01-30T10:30:54.301Z,3.44
2019-01-30T10:33:27.637Z,3.50
2019-01-30T10:36:00.931Z,3.58
2019-01-30T10:38:32.674Z,3.64
2019-01-30T10:41:06.726Z,3.69
2019-01-30T10:43:38.766Z,3.69
2019-01-30T10:46:12.010Z,3.67
2019-01-30T10:48:42.258Z,3.68
2019-01-30T10:51:12.558Z,3.64
2019-01-30T10:53:43.024Z,3.60
2019-01-30T10:56:13.502Z,3.55
2019-01-30T10:58:45.754Z,3.49
2019-01-30T11:01:16.301Z,3.47
2019-01-30T11:03:57.070Z,3.48
2019-01-30T11:06:23.886Z,3.52
2019-01-30T11:08:54.525Z,3.55
2019-01-30T11:11:26.943Z,3.62
2019-01-30T11:13:58.146Z,3.69
2019-01-30T11:16:35.264Z,3.78
2019-01-30T11:19:09.321Z,3.85
2019-01-30T11:21:44.547Z,3.88
2019-01-30T11:24:16.217Z,3.91
2019-01-30T11:26:49.898Z,3.93
2019-01-30T11:29:21.451Z,3.94
2019-01-30T11:31:51.967Z,3.95
2019-01-30T11:34:22.515Z,3.96
2019-01-30T11:36:53.146Z,4.01
2019-01-30T11:39:26.327Z,4.04
2019-01-30T11:41:57.728Z,4.09
2019-01-30T11:44:28.732Z,4.11
2019-01-30T11:46:59.257Z,4.11
2019-01-30T11:49:30.373Z,4.11
2019-01-30T11:52:07.297Z,4.14
2019-01-30T11:54:38.848Z,4.17
2019-01-30T11:57:08.843Z,4.20
2019-01-30T11:59:57.962Z,4.23
2019-01-30T12:02:14.581Z,4.24
2019-01-30T12:04:45.536Z,4.24
2019-01-30T12:07:16.059Z,4.27
2019-01-30T12:09:47.470Z,4.26
2019-01-30T12:12:22.576Z,4.26
2019-01-30T12:14:53.046Z,4.25
2019-01-30T12:17:23.499Z,4.27
2019-01-30T12:19:54.085Z,4.28
2019-01-30T12:22:24.544Z,4.30
2019-01-30T12:24:55.069Z,4.27
2019-01-30T12:27:25.516Z,4.27
2019-01-30T12:29:55.926Z,4.27
2019-01-30T12:32:27.659Z,4.27
2019-01-30T12:35:00.828Z,4.24
2019-01-30T12:37:34.511Z,4.23
2019-01-30T12:40:07.611Z,4.21
2019-01-30T12:42:38.073Z,4.20
2019-01-30T12:45:11.667Z,4.18
2019-01-30T12:47:45.002Z,4.19
2019-01-30T12:50:15.661Z,4.20
2019-01-30T12:52:46.294Z,4.16
2019-01-30T12:55:18.321Z,4.16
2019-01-30T12:57:55.770Z,4.17
2019-01-30T13:00:31.799Z,4.18
2019-01-30T13:03:07.058Z,4.14
2019-01-30T13:05:38.334Z,4.13
2019-01-30T13:08:09.141Z,4.13
2019-01-30T13:10:39.847Z,4.12
2019-01-30T13:13:13.983Z,4.14
2019-01-30T13:15:48.650Z,4.15
2019-01-30T13:18:20.715Z,4.14
2019-01-30T13:20:55.041Z,4.15
2019-01-30T13:23:25.650Z,4.15
2019-01-30T13:25:59.275Z,4.14
2019-01-30T13:28:29.828Z,4.10
2019-01-30T13:31:03.206Z,4.07
2019-01-30T13:33:33.710Z,4.02
2019-01-30T13:36:04.499Z,4.01
2019-01-30T13:38:45.152Z,3.99
2019-01-30T13:41:15.579Z,3.96
2019-01-30T13:43:47.228Z,3.92
2019-01-30T13:46:17.838Z,3.93
2019-01-30T13:48:54.813Z,3.90
2019-01-30T13:51:26.386Z,3.87
2019-01-30T13:54:13.225Z,3.86
2019-01-30T13:57:14.327Z,3.87
2019-01-30T13:59:45.252Z,3.80
2019-01-30T14:02:15.883Z,3.73
2019-01-30T14:04:59.141Z,3.71
2019-01-30T14:07:21.170Z,3.67
2019-01-30T14:09:51.921Z,3.64
2019-01-30T14:12:34.247Z,3.62
2019-01-30T14:15:09.461Z,3.62
2019-01-30T14:17:40.127Z,3.60
2019-01-30T14:20:12.199Z,3.59
2019-01-30T14:22:43.064Z,3.62
2019-01-30T14:25:16.654Z,3.60
2019-01-30T14:27:47.271Z,3.59
2019-01-30T14:30:21.949Z,3.59
2019-01-30T14:32:57.706Z,3.57
2019-01-30T14:35:31.174Z,3.54
2019-01-30T14:38:06.321Z,3.51
2019-01-30T14:40:40.095Z,3.51
2019-01-30T14:43:12.497Z,3.49
2019-01-30T14:45:50.946Z,3.44
2019-01-30T14:48:24.660Z,3.43
2019-01-30T14:50:55.643Z,3.42
2019-01-30T14:53:31.621Z,3.29
2019-01-30T14:56:04.991Z,3.39
2019-01-30T14:58:42.322Z,3.37
2019-01-30T15:01:13.440Z,3.34
2019-01-30T15:03:50.308Z,3.32
2019-01-30T15:06:28.778Z,3.28
2019-01-30T15:08:59.573Z,3.23
2019-01-30T15:11:30.280Z,3.19
2019-01-30T15:14:15.666Z,3.16
2019-01-30T15:16:59.047Z,3.12
2019-01-30T15:19:32.613Z,3.10
2019-01-30T15:22:04.638Z,3.05
2019-01-30T15:24:37.932Z,3.00
2019-01-30T15:27:11.146Z,2.99
2019-01-30T15:29:45.130Z,2.96
2019-01-30T15:32:15.940Z,2.95
2019-01-30T15:34:46.594Z,2.93
2019-01-30T15:37:21.753Z,2.92
2019-01-30T15:39:52.812Z,2.90
2019-01-30T15:42:27.925Z,2.91
2019-01-30T15:45:01.797Z,2.92
2019-01-30T15:47:38.846Z,2.89
2019-01-30T15:50:23.343Z,2.89
2019-01-30T15:52:56.027Z,2.87
2019-01-30T15:55:36.929Z,2.86
2019-01-30T15:58:10.139Z,2.84
2019-01-30T16:00:59.070Z,2.82
2019-01-30T16:03:36.517Z,2.79
2019-01-30T16:06:10.723Z,2.75
2019-01-30T16:08:51.054Z,2.70
2019-01-30T16:11:30.800Z,2.66
2019-01-30T16:14:13.603Z,2.60
2019-01-30T16:16:44.380Z,2.57
2019-01-30T16:19:16.872Z,2.50
2019-01-30T16:21:48.190Z,2.45
2019-01-30T16:24:22.007Z,2.44
2019-01-30T16:26:52.566Z,2.43
2019-01-30T16:29:32.124Z,2.41
2019-01-30T16:32:21.916Z,2.39
2019-01-30T16:34:57.234Z,2.35
2019-01-30T16:37:27.988Z,2.33
2019-01-30T16:40:03.316Z,2.29
2019-01-30T16:42:41.455Z,2.28
2019-01-30T16:45:27.900Z,2.25
2019-01-30T16:48:55.793Z,2.24
2019-01-30T16:52:36.977Z,2.22
2019-01-30T16:55:16.422Z,2.19
2019-01-30T16:57:59.982Z,2.15
2019-01-30T17:00:46.661Z,2.15
2019-01-30T17:03:19.525Z,2.15
2019-01-30T17:05:54.361Z,2.14
2019-01-30T17:08:32.504Z,2.12
2019-01-30T17:11:36.306Z,2.11
2019-01-30T17:14:12.583Z,2.11
2019-01-30T17:16:43.122Z,2.10
2019-01-30T17:19:13.920Z,2.10
2019-01-30T17:21:52.408Z,2.11
2019-01-30T17:24:25.872Z,2.11
2019-01-30T17:26:59.891Z,2.13
2019-01-30T17:29:31.427Z,2.15
2019-01-30T17:32:06.420Z,2.12
2019-01-30T17:34:42.131Z,2.12
2019-01-30T17:37:20.190Z,2.11
2019-01-30T17:39:51.019Z,2.11
2019-01-30T17:42:22.795Z,2.13
2019-01-30T17:44:53.625Z,2.12
2019-01-30T17:47:26.893Z,2.12
2019-01-30T17:50:01.315Z,2.12
2019-01-30T17:52:33.629Z,2.12
2019-01-30T17:55:04.590Z,2.11
2019-01-30T17:57:35.293Z,2.12
2019-01-30T18:00:37.955Z,2.12
2019-01-30T18:03:08.510Z,2.12
2019-01-30T18:05:40.470Z,2.11
2019-01-30T18:08:11.097Z,2.11
2019-01-30T18:10:41.504Z,2.11
2019-01-30T18:13:11.953Z,2.11
2019-01-30T18:15:43.946Z,2.09
2019-01-30T18:18:14.261Z,2.09
2019-01-30T18:20:44.784Z,2.09
2019-01-30T18:23:15.247Z,2.10
2019-01-30T18:25:46.288Z,2.09
2019-01-30T18:28:16.706Z,2.10
2019-01-30T18:30:50.036Z,2.10
2019-01-30T18:33:21.164Z,2.09
2019-01-30T18:35:51.647Z,2.05
2019-01-30T18:38:21.992Z,2.05
2019-01-30T18:40:52.404Z,2.08
2019-01-30T18:43:22.693Z,2.06
2019-01-30T18:45:53.097Z,2.04
2019-01-30T18:48:24.641Z,2.04
2019-01-30T18:50:56.959Z,2.05
2019-01-30T18:53:27.386Z,2.04
2019-01-30T18:56:03.490Z,2.03
2019-01-30T18:58:34.267Z,2.05
2019-01-30T19:01:06.930Z,2.06
2019-01-30T19:03:37.896Z,2.08
2019-01-30T19:06:08.748Z,2.09
2019-01-30T19:08:41.298Z,2.08
2019-01-30T19:11:12.162Z,2.10
2019-01-30T19:13:43.072Z,2.07
2019-01-30T19:16:14.118Z,2.07
2019-01-30T19:18:44.967Z,2.07
2019-01-30T19:21:16.255Z,2.07
2019-01-30T19:23:46.972Z,2.06
2019-01-30T19:26:17.995Z,2.06
2019-01-30T19:28:49.105Z,2.07
2019-01-30T19:31:20.306Z,2.06
2019-01-30T19:33:54.060Z,2.07
2019-01-30T19:36:25.179Z,2.08
2019-01-30T19:38:55.939Z,2.09
2019-01-30T19:41:26.577Z,2.09
2019-01-30T19:43:57.212Z,2.07
2019-01-30T19:46:27.910Z,2.09
2019-01-30T19:48:59.046Z,2.09
2019-01-30T19:51:30.183Z,2.08
2019-01-30T19:54:02.520Z,2.09
2019-01-30T19:56:33.408Z,2.08
2019-01-30T19:59:04.127Z,2.06
2019-01-30T20:01:36.171Z,2.03
2019-01-30T20:04:07.881Z,2.02
2019-01-30T20:06:39.226Z,2.01
2019-01-30T20:09:18.553Z,2.00
2019-01-30T20:11:50.567Z,2.00
2019-01-30T20:14:21.130Z,1.99
2019-01-30T20:16:52.021Z,1.96
2019-01-30T20:19:22.941Z,1.96
2019-01-30T20:22:00.637Z,1.95
2019-01-30T20:24:31.290Z,1.96
2019-01-30T20:27:04.526Z,1.96
2019-01-30T20:29:35.247Z,1.97
2019-01-30T20:32:06.318Z,1.97
2019-01-30T20:34:37.180Z,1.97
2019-01-30T20:37:07.937Z,1.98
2019-01-30T20:39:38.800Z,1.98
2019-01-30T20:42:09.769Z,1.97
2019-01-30T20:44:40.520Z,1.97
2019-01-30T20:47:11.626Z,1.96
2019-01-30T20:49:42.350Z,1.95
2019-01-30T20:52:15.490Z,1.95
2019-01-30T20:54:46.305Z,1.95
2019-01-30T20:57:18.612Z,1.96
2019-01-30T20:59:49.445Z,1.96
2019-01-30T21:02:20.302Z,1.93
2019-01-30T21:04:51.090Z,1.95
2019-01-30T21:07:22.008Z,1.92
2019-01-30T21:09:52.663Z,1.93
2019-01-30T21:12:23.558Z,1.94
2019-01-30T21:14:54.366Z,1.93
2019-01-30T21:17:27.897Z,1.92
2019-01-30T21:19:58.779Z,1.90
2019-01-30T21:22:32.264Z,1.88
2019-01-30T21:25:03.119Z,1.88
2019-01-30T21:27:34.044Z,1.87
2019-01-30T21:30:06.097Z,1.90
2019-01-30T21:32:40.470Z,1.90
2019-01-30T21:35:11.640Z,1.88
2019-01-30T21:37:48.952Z,1.87
2019-01-30T21:40:20.490Z,1.85
2019-01-30T21:42:51.456Z,1.79
2019-01-30T21:45:24.547Z,1.71
2019-01-30T21:47:55.226Z,1.64
2019-01-30T21:50:25.792Z,1.57
2019-01-30T21:52:56.454Z,1.52
2019-01-30T21:55:34.396Z,1.51
2019-01-30T21:58:08.234Z,1.49
2019-01-30T22:00:39.096Z,1.49
2019-01-30T22:03:09.873Z,1.49
2019-01-30T22:05:41.452Z,1.50
2019-01-30T22:08:12.197Z,1.53
2019-01-30T22:10:43.188Z,1.52
2019-01-30T22:13:13.791Z,1.53
2019-01-30T22:15:44.483Z,1.54
2019-01-30T22:18:14.809Z,1.54
2019-01-30T22:20:45.285Z,1.53
2019-01-30T22:23:17.572Z,1.56
2019-01-30T22:25:49.494Z,1.56
2019-01-30T22:28:20.160Z,1.54
2019-01-30T22:30:50.536Z,1.55
2019-01-30T22:33:21.003Z,1.54
2019-01-30T22:35:51.433Z,1.55
2019-01-30T22:38:21.927Z,1.49
2019-01-30T22:40:52.223Z,1.53
2019-01-30T22:43:25.001Z,1.51
2019-01-30T22:45:56.465Z,1.51
2019-01-30T22:48:26.899Z,1.53
2019-01-30T22:50:58.766Z,1.53
2019-01-30T22:53:29.302Z,1.52
2019-01-30T22:55:59.678Z,1.53
2019-01-30T22:58:30.366Z,1.54
2019-01-30T23:01:52.855Z,1.56
2019-01-30T23:05:37.724Z,1.56
2019-01-30T23:08:44.590Z,1.55
2019-01-30T23:12:13.299Z,1.50
2019-01-30T23:15:00.721Z,1.48
2019-01-30T23:18:37.848Z,1.41
2019-01-30T23:21:18.989Z,1.35
2019-01-30T23:24:47.855Z,1.25
2019-01-30T23:27:34.870Z,1.24
2019-01-30T23:30:45.165Z,1.14
2019-01-30T23:33:44.246Z,1.07
2019-01-30T23:37:10.783Z,1.02
2019-01-30T23:40:23.973Z,1.01
2019-01-30T23:43:54.257Z,0.94
2019-01-30T23:46:57.316Z,0.87
2019-01-30T23:50:38.629Z,0.87
2019-01-30T23:54:06.116Z,0.86
2019-01-30T23:57:32.797Z,0.84
